createdAt,value
2023-11-27T00:02:11.346Z,4.51
2023-11-27T00:04:39.150Z,4.48
2023-11-27T00:07:08.241Z,4.57
2023-11-27T00:09:35.872Z,4.58
2023-11-27T00:12:03.659Z,4.56
2023-11-27T00:14:31.400Z,4.50
2023-11-27T00:16:59.135Z,4.52
2023-11-27T00:19:26.983Z,4.61
2023-11-27T00:21:54.753Z,4.61
2023-11-27T00:24:23.814Z,4.58
2023-11-27T00:26:51.846Z,4.60
2023-11-27T00:29:19.593Z,4.52
2023-11-27T00:31:47.254Z,4.56
2023-11-27T00:34:14.978Z,4.55
2023-11-27T00:36:42.745Z,4.58
2023-11-27T00:39:10.421Z,4.45
2023-11-27T00:41:39.985Z,4.45
2023-11-27T00:44:07.650Z,4.40
2023-11-27T00:46:35.533Z,4.43
2023-11-27T00:49:03.186Z,4.45
2023-11-27T00:51:30.751Z,4.48
2023-11-27T00:53:58.616Z,4.47
2023-11-27T00:56:26.898Z,4.36
2023-11-27T00:58:56.063Z,4.43
2023-11-27T01:01:23.888Z,4.50
2023-11-27T01:03:51.950Z,4.54
2023-11-27T01:06:19.628Z,4.46
2023-11-27T01:08:47.440Z,4.46
2023-11-27T01:11:15.073Z,4.41
2023-11-27T01:13:42.776Z,4.41
2023-11-27T01:16:11.864Z,4.47
2023-11-27T01:18:39.536Z,4.49
2023-11-27T01:21:07.774Z,4.46
2023-11-27T01:23:35.605Z,4.47
2023-11-27T01:26:03.213Z,4.53
2023-11-27T01:28:30.817Z,4.55
2023-11-27T01:30:58.461Z,4.44
2023-11-27T01:33:27.448Z,4.40
2023-11-27T01:35:55.441Z,4.49
2023-11-27T01:38:23.912Z,4.57
2023-11-27T01:40:51.561Z,4.60
2023-11-27T01:43:19.185Z,4.67
2023-11-27T01:45:47.131Z,4.63
2023-11-27T01:48:15.014Z,4.64
2023-11-27T01:50:44.862Z,4.65
2023-11-27T01:53:12.525Z,4.70
2023-11-27T01:55:40.252Z,4.72
2023-11-27T01:58:07.929Z,4.69
2023-11-27T02:00:36.653Z,4.68
2023-11-27T02:03:06.090Z,4.55
2023-11-27T02:05:33.792Z,4.54
2023-11-27T02:08:02.869Z,4.54
2023-11-27T02:10:30.915Z,4.61
2023-11-27T02:12:58.604Z,4.67
2023-11-27T02:15:26.549Z,4.60
2023-11-27T02:17:54.293Z,4.59
2023-11-27T02:20:21.912Z,4.43
2023-11-27T02:22:49.507Z,4.59
2023-11-27T02:25:18.640Z,4.63
2023-11-27T02:27:46.364Z,4.58
2023-11-27T02:30:15.035Z,4.56
2023-11-27T02:32:42.644Z,4.55
2023-11-27T02:35:10.501Z,4.52
2023-11-27T02:37:38.100Z,4.41
2023-11-27T02:40:10.470Z,4.43
2023-11-27T02:42:40.774Z,4.37
2023-11-27T02:45:10.217Z,4.42
2023-11-27T02:47:38.030Z,4.31
2023-11-27T02:50:06.496Z,4.27
2023-11-27T02:52:34.129Z,4.20
2023-11-27T02:55:02.409Z,4.28
2023-11-27T02:57:30.042Z,4.32
2023-11-27T02:59:58.963Z,4.30
2023-11-27T03:02:27.179Z,4.31
2023-11-27T03:04:54.778Z,4.30
2023-11-27T03:07:22.508Z,4.17
2023-11-27T03:09:50.143Z,4.32
2023-11-27T03:12:18.111Z,4.28
2023-11-27T03:14:45.711Z,4.20
2023-11-27T03:17:14.862Z,4.18
2023-11-27T03:19:47.796Z,4.11
2023-11-27T03:22:16.750Z,4.11
2023-11-27T03:24:44.695Z,4.13
2023-11-27T03:27:12.263Z,4.19
2023-11-27T03:29:39.889Z,4.19
2023-11-27T03:32:08.202Z,4.18
2023-11-27T03:34:38.015Z,4.18
2023-11-27T03:37:04.949Z,4.17
2023-11-27T03:39:32.854Z,4.16
2023-11-27T03:42:01.521Z,4.15
2023-11-27T03:44:29.520Z,4.18
2023-11-27T03:46:57.321Z,4.17
2023-11-27T03:49:25.001Z,4.18
2023-11-27T03:51:54.061Z,4.15
2023-11-27T03:54:21.720Z,4.14
2023-11-27T03:56:49.343Z,4.06
2023-11-27T03:59:17.430Z,4.05
2023-11-27T04:01:45.227Z,4.07
2023-11-27T04:04:14.100Z,3.97
2023-11-27T04:06:41.807Z,3.98
2023-11-27T04:09:14.307Z,3.94
2023-11-27T04:11:42.165Z,3.92
2023-11-27T04:14:10.626Z,3.88
2023-11-27T04:16:38.338Z,3.82
2023-11-27T04:19:05.986Z,3.73
2023-11-27T04:21:33.673Z,3.68
2023-11-27T04:24:01.996Z,3.71
2023-11-27T04:26:31.064Z,3.73
2023-11-27T04:29:00.281Z,3.78
2023-11-27T04:31:28.088Z,3.74
2023-11-27T04:33:56.116Z,3.71
2023-11-27T04:36:24.356Z,3.78
2023-11-27T04:38:52.124Z,3.80
2023-11-27T04:41:20.506Z,3.79
2023-11-27T04:43:49.807Z,3.85
2023-11-27T04:46:18.140Z,3.76
2023-11-27T04:48:45.965Z,3.64
2023-11-27T04:51:13.628Z,3.58
2023-11-27T04:53:41.333Z,3.60
2023-11-27T04:56:09.822Z,3.64
2023-11-27T04:58:37.449Z,3.59
2023-11-27T05:01:07.257Z,3.56
2023-11-27T05:03:34.869Z,3.51
2023-11-27T05:06:02.521Z,3.49
2023-11-27T05:08:30.440Z,3.54
2023-11-27T05:10:58.080Z,3.55
2023-11-27T05:13:25.780Z,3.52
2023-11-27T05:15:53.496Z,3.53
2023-11-27T05:18:22.391Z,3.50
2023-11-27T05:20:50.134Z,3.43
2023-11-27T05:23:18.016Z,3.50
2023-11-27T05:25:45.785Z,3.53
2023-11-27T05:28:13.489Z,3.53
2023-11-27T05:30:40.933Z,3.50
2023-11-27T05:33:08.715Z,3.52
2023-11-27T05:35:37.758Z,3.55
2023-11-27T05:38:05.363Z,3.54
2023-11-27T05:40:33.714Z,3.49
2023-11-27T05:43:06.407Z,3.60
2023-11-27T05:45:35.441Z,3.56
2023-11-27T05:48:03.112Z,3.54
2023-11-27T05:50:30.765Z,3.55
2023-11-27T05:53:00.238Z,3.51
2023-11-27T05:55:28.398Z,3.55
2023-11-27T05:57:57.066Z,3.53
2023-11-27T06:00:26.049Z,3.54
2023-11-27T06:02:55.060Z,3.44
2023-11-27T06:05:23.983Z,3.46
2023-11-27T06:07:51.883Z,3.43
2023-11-27T06:10:21.105Z,3.43
2023-11-27T06:12:48.891Z,3.49
2023-11-27T06:15:16.745Z,3.48
2023-11-27T06:17:44.701Z,3.46
2023-11-27T06:20:13.555Z,3.41
2023-11-27T06:22:41.156Z,3.35
2023-11-27T06:25:09.936Z,3.46
2023-11-27T06:27:39.268Z,3.47
2023-11-27T06:30:10.925Z,3.45
2023-11-27T06:32:40.074Z,3.34
2023-11-27T06:35:13.184Z,3.47
2023-11-27T06:37:41.156Z,3.46
2023-11-27T06:40:09.826Z,3.51
2023-11-27T06:42:38.840Z,3.52
2023-11-27T06:45:08.148Z,3.40
2023-11-27T06:47:36.009Z,3.43
2023-11-27T06:50:03.700Z,3.44
2023-11-27T06:52:31.376Z,3.46
2023-11-27T06:54:59.096Z,3.50
2023-11-27T06:57:26.731Z,3.51
2023-11-27T06:59:56.549Z,3.48
2023-11-27T07:02:24.477Z,3.49
2023-11-27T07:04:52.220Z,3.57
2023-11-27T07:07:19.934Z,3.52
2023-11-27T07:09:47.626Z,3.52
2023-11-27T07:12:17.540Z,3.49
2023-11-27T07:14:45.228Z,3.41
2023-11-27T07:17:14.271Z,3.52
2023-11-27T07:19:42.215Z,3.66
2023-11-27T07:22:09.849Z,3.67
2023-11-27T07:24:37.504Z,3.61
2023-11-27T07:27:05.684Z,3.46
2023-11-27T07:29:33.350Z,3.52
2023-11-27T07:32:01.940Z,3.46
2023-11-27T07:34:31.118Z,3.49
2023-11-27T07:36:59.249Z,3.47
2023-11-27T07:39:27.137Z,3.51
2023-11-27T07:41:54.776Z,3.51
2023-11-27T07:44:22.426Z,3.57
2023-11-27T07:46:50.044Z,3.62
2023-11-27T07:49:20.105Z,3.75
2023-11-27T07:51:49.151Z,3.75
2023-11-27T07:54:16.908Z,3.62
2023-11-27T07:56:44.567Z,3.66
2023-11-27T07:59:12.219Z,3.71
2023-11-27T08:01:39.900Z,3.70
2023-11-27T08:04:07.695Z,3.81
2023-11-27T08:06:35.426Z,3.86
2023-11-27T08:09:05.826Z,3.92
2023-11-27T08:11:34.462Z,3.92
2023-11-27T08:14:02.621Z,3.79
2023-11-27T08:16:31.263Z,3.76
2023-11-27T08:18:59.225Z,3.81
2023-11-27T08:21:27.244Z,3.95
2023-11-27T08:23:57.535Z,3.94
2023-11-27T08:26:40.380Z,4.02
2023-11-27T08:29:08.686Z,3.95
2023-11-27T08:31:37.106Z,4.07
2023-11-27T08:34:05.526Z,4.15
2023-11-27T08:36:36.543Z,4.15
2023-11-27T08:39:06.012Z,4.18
2023-11-27T08:41:36.246Z,4.11
2023-11-27T08:44:03.950Z,4.13
2023-11-27T08:46:31.667Z,4.25
2023-11-27T08:48:59.322Z,4.26
2023-11-27T08:51:26.982Z,4.29
2023-11-27T08:53:55.605Z,4.32
2023-11-27T08:56:23.383Z,4.26
2023-11-27T08:58:52.368Z,4.25
2023-11-27T09:01:20.031Z,4.26
2023-11-27T09:03:47.746Z,4.34
2023-11-27T09:06:15.864Z,4.23
2023-11-27T09:08:43.516Z,4.21
2023-11-27T09:11:12.335Z,4.29
2023-11-27T09:13:40.001Z,4.30
2023-11-27T09:16:11.819Z,4.35
2023-11-27T09:18:39.578Z,4.31
2023-11-27T09:21:07.710Z,4.25
2023-11-27T09:23:35.584Z,4.27
2023-11-27T09:26:03.211Z,4.36
2023-11-27T09:28:30.850Z,4.38
2023-11-27T09:30:58.482Z,4.43
2023-11-27T09:33:28.929Z,4.51
2023-11-27T09:35:56.590Z,4.41
2023-11-27T09:38:24.253Z,4.36
2023-11-27T09:40:52.202Z,4.31
2023-11-27T09:43:19.903Z,4.02
2023-11-27T09:45:47.664Z,4.18
2023-11-27T09:48:19.692Z,4.16
2023-11-27T09:50:52.466Z,3.94
2023-11-27T09:53:25.350Z,4.08
2023-11-27T09:55:57.276Z,4.12
2023-11-27T09:58:25.487Z,4.13
2023-11-27T10:00:56.506Z,4.05
2023-11-27T10:03:26.108Z,3.93
2023-11-27T10:05:59.342Z,3.92
2023-11-27T10:08:27.493Z,4.03
2023-11-27T10:10:57.306Z,4.06
2023-11-27T10:13:46.013Z,4.09
2023-11-27T10:16:24.614Z,4.17
2023-11-27T10:18:53.125Z,4.08
2023-11-27T10:21:23.380Z,3.99
2023-11-27T10:23:52.425Z,4.04
2023-11-27T10:26:21.786Z,4.13
2023-11-27T10:28:51.621Z,4.09
2023-11-27T10:31:20.303Z,4.01
2023-11-27T10:33:48.026Z,4.01
2023-11-27T10:36:18.695Z,4.11
2023-11-27T10:38:47.987Z,4.01
2023-11-27T10:41:16.201Z,4.00
2023-11-27T10:43:44.354Z,3.88
2023-11-27T10:46:12.232Z,3.81
2023-11-27T10:48:44.589Z,3.81
2023-11-27T10:51:15.081Z,3.86
2023-11-27T10:53:46.858Z,3.77
2023-11-27T10:56:17.559Z,3.78
2023-11-27T10:58:48.434Z,3.80
2023-11-27T11:01:20.711Z,3.84
2023-11-27T11:03:55.670Z,3.88
2023-11-27T11:06:26.614Z,3.92
2023-11-27T11:08:59.604Z,3.85
2023-11-27T11:11:30.050Z,3.77
2023-11-27T11:13:58.839Z,3.74
2023-11-27T11:16:33.413Z,3.75
2023-11-27T11:19:09.498Z,3.71
2023-11-27T11:21:48.582Z,3.66
2023-11-27T11:24:26.171Z,3.70
2023-11-27T11:27:09.075Z,3.73
2023-11-27T11:29:44.724Z,3.70
2023-11-27T11:32:17.569Z,3.67
2023-11-27T11:34:49.465Z,3.69
2023-11-27T11:37:19.587Z,3.78
2023-11-27T11:39:47.804Z,3.86
2023-11-27T11:42:19.668Z,3.96
2023-11-27T11:45:15.459Z,3.72
2023-11-27T11:47:43.632Z,3.79
2023-11-27T11:50:25.695Z,3.86
2023-11-27T11:52:54.640Z,3.77
2023-11-27T11:55:32.250Z,3.73
2023-11-27T11:58:04.442Z,3.78
2023-11-27T12:00:43.400Z,3.80
2023-11-27T12:03:16.982Z,3.70
2023-11-27T12:05:47.932Z,3.68
2023-11-27T12:08:16.020Z,3.67
2023-11-27T12:10:44.786Z,3.68
2023-11-27T12:13:14.162Z,3.70
2023-11-27T12:15:42.116Z,3.64
2023-11-27T12:18:10.829Z,3.46
2023-11-27T12:20:39.004Z,3.34
2023-11-27T12:23:07.116Z,3.32
2023-11-27T12:25:34.816Z,3.31
2023-11-27T12:28:02.843Z,3.33
2023-11-27T12:30:31.860Z,3.38
2023-11-27T12:33:02.951Z,3.39
2023-11-27T12:35:30.696Z,3.31
2023-11-27T12:38:02.540Z,3.20
2023-11-27T12:40:34.647Z,3.18
2023-11-27T12:43:06.096Z,3.21
2023-11-27T12:45:37.409Z,3.05
2023-11-27T12:48:08.383Z,3.11
2023-11-27T12:50:40.738Z,3.20
2023-11-27T12:53:10.441Z,3.18
2023-11-27T12:55:39.653Z,3.05
2023-11-27T12:58:13.605Z,3.09
2023-11-27T13:00:45.472Z,2.95
2023-11-27T13:03:15.356Z,2.96
2023-11-27T13:05:43.216Z,3.11
2023-11-27T13:08:10.919Z,3.06
2023-11-27T13:10:44.178Z,2.99
2023-11-27T13:13:12.998Z,2.91
2023-11-27T13:15:41.265Z,3.02
2023-11-27T13:18:16.947Z,3.12
2023-11-27T13:20:49.883Z,3.18
2023-11-27T13:23:18.690Z,3.31
2023-11-27T13:25:49.998Z,3.09
2023-11-27T13:28:19.330Z,3.05
2023-11-27T13:30:52.922Z,3.00
2023-11-27T13:33:21.918Z,3.05
2023-11-27T13:35:49.727Z,3.17
2023-11-27T13:38:18.735Z,3.20
2023-11-27T13:40:49.308Z,3.28
2023-11-27T13:43:19.154Z,3.21
2023-11-27T13:45:48.667Z,3.12
2023-11-27T13:48:20.652Z,3.14
2023-11-27T13:50:50.364Z,3.20
2023-11-27T13:53:18.642Z,3.13
2023-11-27T13:55:49.242Z,3.08
2023-11-27T13:58:20.551Z,3.03
2023-11-27T14:00:50.534Z,3.12
2023-11-27T14:03:20.228Z,3.04
2023-11-27T14:05:50.766Z,3.19
2023-11-27T14:08:21.159Z,3.18
2023-11-27T14:11:25.820Z,3.14
2023-11-27T14:14:05.866Z,3.15
2023-11-27T14:16:35.061Z,3.14
2023-11-27T14:19:20.878Z,3.11
2023-11-27T14:22:07.391Z,3.18
2023-11-27T14:24:45.275Z,3.10
2023-11-27T14:27:20.895Z,3.06
2023-11-27T14:29:50.518Z,3.11
2023-11-27T14:32:19.140Z,3.03
2023-11-27T14:34:52.652Z,3.07
2023-11-27T14:37:22.202Z,2.98
2023-11-27T14:39:51.252Z,3.03
2023-11-27T14:42:21.249Z,3.01
2023-11-27T14:44:49.862Z,2.97
2023-11-27T14:47:20.441Z,2.91
2023-11-27T14:49:54.804Z,2.93
2023-11-27T14:52:26.766Z,2.96
2023-11-27T14:54:54.845Z,2.96
2023-11-27T14:57:23.145Z,3.04
2023-11-27T14:59:51.627Z,2.98
2023-11-27T15:02:22.286Z,3.02
2023-11-27T15:04:50.322Z,2.98
2023-11-27T15:07:18.080Z,2.99
2023-11-27T15:09:47.077Z,3.04
2023-11-27T15:12:14.994Z,2.93
2023-11-27T15:14:47.738Z,2.91
2023-11-27T15:17:15.546Z,2.93
2023-11-27T15:19:43.262Z,2.95
2023-11-27T15:22:15.222Z,2.95
2023-11-27T15:24:42.877Z,2.98
2023-11-27T15:27:11.879Z,2.96
2023-11-27T15:29:39.441Z,3.02
2023-11-27T15:32:08.905Z,3.03
2023-11-27T15:34:36.711Z,3.03
2023-11-27T15:37:06.393Z,3.03
2023-11-27T15:39:34.810Z,3.11
2023-11-27T15:42:07.338Z,3.07
2023-11-27T15:44:36.708Z,3.07
2023-11-27T15:47:06.757Z,3.12
2023-11-27T15:49:35.428Z,3.15
2023-11-27T15:52:03.868Z,3.10
2023-11-27T15:54:31.469Z,3.18
2023-11-27T15:56:59.143Z,3.09
2023-11-27T15:59:29.314Z,3.10
2023-11-27T16:01:58.608Z,3.06
2023-11-27T16:04:27.018Z,3.05
2023-11-27T16:06:54.699Z,3.04
2023-11-27T16:09:22.590Z,3.03
2023-11-27T16:11:51.391Z,2.98
2023-11-27T16:14:18.960Z,3.06
2023-11-27T16:16:48.182Z,3.04
2023-11-27T16:19:18.971Z,3.03
2023-11-27T16:21:49.474Z,3.02
2023-11-27T16:24:17.124Z,3.05
2023-11-27T16:26:46.315Z,3.03
2023-11-27T16:29:13.989Z,3.05
2023-11-27T16:31:41.685Z,3.06
2023-11-27T16:34:11.808Z,3.08
2023-11-27T16:36:40.957Z,3.11
2023-11-27T16:39:13.249Z,3.10
2023-11-27T16:41:40.921Z,3.07
2023-11-27T16:44:08.553Z,3.04
2023-11-27T16:46:36.435Z,3.04
2023-11-27T16:49:04.123Z,3.06
2023-11-27T16:51:32.471Z,3.06
2023-11-27T16:54:01.420Z,3.10
2023-11-27T16:56:28.193Z,3.07
2023-11-27T16:58:55.886Z,3.07
2023-11-27T17:01:23.681Z,3.05
2023-11-27T17:03:55.128Z,3.07
2023-11-27T17:06:23.036Z,3.12
2023-11-27T17:08:52.042Z,3.15
2023-11-27T17:11:21.101Z,3.11
2023-11-27T17:13:50.267Z,3.06
2023-11-27T17:16:18.987Z,3.10
2023-11-27T17:18:46.885Z,3.16
2023-11-27T17:21:15.115Z,3.11
2023-11-27T17:23:46.409Z,3.14
2023-11-27T17:26:18.763Z,3.11
2023-11-27T17:28:48.234Z,3.15
2023-11-27T17:31:17.182Z,3.10
2023-11-27T17:33:44.982Z,3.05
2023-11-27T17:36:16.448Z,3.04
2023-11-27T17:38:45.276Z,3.04
2023-11-27T17:41:13.160Z,3.03
2023-11-27T17:43:41.924Z,3.02
2023-11-27T17:46:12.024Z,2.99
2023-11-27T17:48:40.640Z,3.00
2023-11-27T17:51:09.194Z,3.00
2023-11-27T17:53:37.455Z,3.01
2023-11-27T17:56:05.725Z,3.06
2023-11-27T17:58:33.413Z,3.05
2023-11-27T18:01:01.036Z,3.01
2023-11-27T18:03:30.347Z,3.07
2023-11-27T18:05:58.262Z,3.05
2023-11-27T18:08:26.814Z,3.11
2023-11-27T18:10:54.567Z,3.13
2023-11-27T18:13:22.492Z,3.16
2023-11-27T18:15:50.480Z,3.18
2023-11-27T18:18:19.406Z,3.15
2023-11-27T18:20:49.417Z,3.28
2023-11-27T18:23:22.829Z,3.17
2023-11-27T18:25:50.984Z,3.16
2023-11-27T18:28:18.812Z,3.14
2023-11-27T18:30:46.473Z,3.12
2023-11-27T18:33:14.328Z,3.03
2023-11-27T18:35:42.102Z,3.05
2023-11-27T18:38:11.096Z,3.15
2023-11-27T18:40:38.855Z,3.02
2023-11-27T18:43:06.539Z,3.09
2023-11-27T18:45:34.233Z,3.25
2023-11-27T18:48:02.362Z,3.17
2023-11-27T18:50:30.911Z,3.21
2023-11-27T18:52:59.028Z,3.24
2023-11-27T18:55:28.644Z,3.18
2023-11-27T18:57:56.652Z,3.25
2023-11-27T19:00:24.807Z,3.19
2023-11-27T19:02:52.740Z,3.11
2023-11-27T19:05:20.672Z,3.12
2023-11-27T19:07:52.721Z,3.12
2023-11-27T19:10:20.841Z,3.09
2023-11-27T19:12:50.469Z,3.04
2023-11-27T19:15:20.132Z,3.08
2023-11-27T19:17:48.260Z,2.98
2023-11-27T19:20:17.079Z,2.95
2023-11-27T19:22:47.699Z,2.93
2023-11-27T19:25:16.073Z,2.99
2023-11-27T19:27:44.012Z,2.94
2023-11-27T19:30:13.947Z,2.94
2023-11-27T19:32:42.327Z,2.98
2023-11-27T19:35:11.005Z,3.02
2023-11-27T19:37:39.121Z,3.08
2023-11-27T19:40:08.500Z,3.11
2023-11-27T19:42:36.333Z,3.11
2023-11-27T19:45:04.542Z,3.11
2023-11-27T19:47:34.029Z,3.18
2023-11-27T19:50:02.399Z,3.19
2023-11-27T19:52:30.239Z,3.17
2023-11-27T19:54:58.077Z,3.13
2023-11-27T19:57:26.073Z,3.18
2023-11-27T19:59:55.170Z,3.16
2023-11-27T20:02:23.514Z,3.18
2023-11-27T20:04:53.612Z,3.19
2023-11-27T20:07:23.084Z,3.24
2023-11-27T20:09:50.137Z,3.21
2023-11-27T20:12:18.207Z,3.21
2023-11-27T20:14:46.077Z,3.19
2023-11-27T20:17:14.199Z,3.17
2023-11-27T20:19:42.124Z,3.21
2023-11-27T20:22:11.294Z,3.25
2023-11-27T20:24:39.062Z,3.25
2023-11-27T20:27:07.448Z,3.24
2023-11-27T20:29:36.763Z,3.28
2023-11-27T20:32:05.510Z,3.28
2023-11-27T20:34:33.395Z,3.32
2023-11-27T20:37:01.524Z,3.30
2023-11-27T20:39:30.791Z,3.31
2023-11-27T20:41:58.543Z,3.30
2023-11-27T20:44:26.228Z,3.31
2023-11-27T20:46:54.259Z,3.34
2023-11-27T20:49:21.994Z,3.38
2023-11-27T20:51:49.750Z,3.39
2023-11-27T20:54:17.598Z,3.39
2023-11-27T20:56:47.254Z,3.45
2023-11-27T20:59:15.425Z,3.47
2023-11-27T21:01:45.398Z,3.46
2023-11-27T21:04:13.852Z,3.49
2023-11-27T21:06:43.438Z,3.54
2023-11-27T21:09:13.344Z,3.54
2023-11-27T21:11:41.142Z,3.56
2023-11-27T21:14:10.864Z,3.59
2023-11-27T21:16:38.646Z,3.59
2023-11-27T21:19:07.452Z,3.60
2023-11-27T21:21:35.158Z,3.59
2023-11-27T21:24:05.530Z,3.64
2023-11-27T21:26:33.282Z,3.67
2023-11-27T21:29:00.957Z,3.75
2023-11-27T21:31:31.871Z,3.76
2023-11-27T21:34:01.464Z,3.75
2023-11-27T21:36:30.179Z,3.74
2023-11-27T21:38:58.169Z,3.75
2023-11-27T21:41:28.687Z,3.73
2023-11-27T21:43:56.651Z,3.78
2023-11-27T21:46:24.793Z,3.78
2023-11-27T21:48:53.943Z,3.81
2023-11-27T21:51:21.716Z,3.87
2023-11-27T21:53:49.491Z,3.86
2023-11-27T21:56:17.776Z,3.86
2023-11-27T21:58:45.404Z,3.88
2023-11-27T22:01:17.396Z,3.91
2023-11-27T22:03:46.416Z,3.94
2023-11-27T22:06:15.743Z,3.98
2023-11-27T22:08:43.530Z,3.96
2023-11-27T22:11:11.196Z,3.97
2023-11-27T22:13:38.918Z,4.02
2023-11-27T22:16:07.696Z,4.03
2023-11-27T22:18:35.463Z,4.05
2023-11-27T22:21:03.177Z,4.05
2023-11-27T22:23:32.263Z,4.11
2023-11-27T22:25:59.899Z,4.12
2023-11-27T22:28:27.619Z,4.14
2023-11-27T22:30:55.273Z,4.13
2023-11-27T22:33:23.169Z,4.12
2023-11-27T22:35:50.788Z,4.13
2023-11-27T22:38:18.479Z,4.14
2023-11-27T22:40:47.510Z,4.14
2023-11-27T22:43:15.205Z,4.13
2023-11-27T22:45:42.833Z,4.14
2023-11-27T22:48:10.612Z,4.18
2023-11-27T22:50:38.463Z,4.21
2023-11-27T22:53:06.099Z,4.22
2023-11-27T22:55:33.809Z,4.20
2023-11-27T22:58:03.183Z,4.20
2023-11-27T23:00:30.915Z,4.21
2023-11-27T23:02:58.636Z,4.20
2023-11-27T23:05:26.824Z,4.18
2023-11-27T23:07:54.464Z,4.23
2023-11-27T23:10:22.126Z,4.23
2023-11-27T23:12:49.870Z,4.21
2023-11-27T23:15:19.328Z,4.23
2023-11-27T23:17:47.368Z,4.22
2023-11-27T23:20:15.136Z,4.23
2023-11-27T23:22:42.755Z,4.24
2023-11-27T23:25:10.498Z,4.24
2023-11-27T23:27:38.226Z,4.25
2023-11-27T23:30:07.417Z,4.25
2023-11-27T23:32:36.391Z,4.24
2023-11-27T23:35:05.671Z,4.24
2023-11-27T23:37:33.395Z,4.28
2023-11-27T23:40:01.134Z,4.33
2023-11-27T23:42:28.879Z,4.35
2023-11-27T23:44:56.530Z,4.41
2023-11-27T23:47:24.151Z,4.45
2023-11-27T23:49:53.224Z,4.42
2023-11-27T23:52:20.839Z,4.42
2023-11-27T23:54:50.354Z,4.43
2023-11-27T23:57:18.016Z,4.44
2023-11-27T23:59:45.597Z,4.42
